sensor_id;sensor_type;location;lat;lon;timestamp;temperature;humidity
68789;DHT22;55773;54.444;18.376;2022-07-19T00:00:27;16.41;84.04
68789;DHT22;55773;54.444;18.376;2022-07-19T00:02:53;16.46;84.08
68789;DHT22;55773;54.444;18.376;2022-07-19T00:05:20;16.46;84.15
68789;DHT22;55773;54.444;18.376;2022-07-19T00:07:46;16.45;84.09
68789;DHT22;55773;54.444;18.376;2022-07-19T00:10:13;16.45;84.14
68789;DHT22;55773;54.444;18.376;2022-07-19T00:12:39;16.50;84.08
68789;DHT22;55773;54.444;18.376;2022-07-19T00:15:08;16.52;83.96
68789;DHT22;55773;54.444;18.376;2022-07-19T00:17:34;16.57;83.91
68789;DHT22;55773;54.444;18.376;2022-07-19T00:20:03;16.53;83.83
68789;DHT22;55773;54.444;18.376;2022-07-19T00:22:28;16.49;84.21
68789;DHT22;55773;54.444;18.376;2022-07-19T00:24:54;16.53;83.95
68789;DHT22;55773;54.444;18.376;2022-07-19T00:27:22;16.53;83.80
68789;DHT22;55773;54.444;18.376;2022-07-19T00:29:47;16.55;83.79
68789;DHT22;55773;54.444;18.376;2022-07-19T00:32:12;16.56;83.55
68789;DHT22;55773;54.444;18.376;2022-07-19T00:34:38;16.53;83.39
68789;DHT22;55773;54.444;18.376;2022-07-19T00:37:03;16.55;83.38
68789;DHT22;55773;54.444;18.376;2022-07-19T00:39:29;16.55;83.46
68789;DHT22;55773;54.444;18.376;2022-07-19T00:41:57;16.59;82.98
68789;DHT22;55773;54.444;18.376;2022-07-19T00:44:22;16.63;82.89
68789;DHT22;55773;54.444;18.376;2022-07-19T00:46:48;16.60;83.06
68789;DHT22;55773;54.444;18.376;2022-07-19T00:49:14;16.56;83.17
68789;DHT22;55773;54.444;18.376;2022-07-19T00:51:39;16.56;83.18
68789;DHT22;55773;54.444;18.376;2022-07-19T00:54:11;16.56;83.13
68789;DHT22;55773;54.444;18.376;2022-07-19T00:56:37;16.64;82.67
68789;DHT22;55773;54.444;18.376;2022-07-19T00:59:03;16.66;82.41
68789;DHT22;55773;54.444;18.376;2022-07-19T01:01:30;16.60;82.77
68789;DHT22;55773;54.444;18.376;2022-07-19T01:03:56;16.64;82.66
68789;DHT22;55773;54.444;18.376;2022-07-19T01:06:22;16.66;82.72
68789;DHT22;55773;54.444;18.376;2022-07-19T01:08:48;16.70;82.47
68789;DHT22;55773;54.444;18.376;2022-07-19T01:11:13;16.70;82.21
68789;DHT22;55773;54.444;18.376;2022-07-19T01:13:39;16.73;82.18
68789;DHT22;55773;54.444;18.376;2022-07-19T01:16:05;16.72;82.10
68789;DHT22;55773;54.444;18.376;2022-07-19T01:18:30;16.74;82.33
68789;DHT22;55773;54.444;18.376;2022-07-19T01:20:58;16.66;82.79
68789;DHT22;55773;54.444;18.376;2022-07-19T01:23:26;16.66;82.72
68789;DHT22;55773;54.444;18.376;2022-07-19T01:25:52;16.64;82.81
68789;DHT22;55773;54.444;18.376;2022-07-19T01:28:17;16.60;83.00
68789;DHT22;55773;54.444;18.376;2022-07-19T01:30:43;16.67;82.39
68789;DHT22;55773;54.444;18.376;2022-07-19T01:33:08;16.64;82.46
68789;DHT22;55773;54.444;18.376;2022-07-19T01:35:34;16.62;82.53
68789;DHT22;55773;54.444;18.376;2022-07-19T01:38:00;16.64;82.32
68789;DHT22;55773;54.444;18.376;2022-07-19T01:40:26;16.60;82.34
68789;DHT22;55773;54.444;18.376;2022-07-19T01:42:54;16.59;82.47
68789;DHT22;55773;54.444;18.376;2022-07-19T01:45:22;16.53;82.80
68789;DHT22;55773;54.444;18.376;2022-07-19T01:47:50;16.55;82.86
68789;DHT22;55773;54.444;18.376;2022-07-19T01:50:19;16.52;82.80
68789;DHT22;55773;54.444;18.376;2022-07-19T01:52:48;16.49;82.88
68789;DHT22;55773;54.444;18.376;2022-07-19T01:55:14;16.50;83.12
68789;DHT22;55773;54.444;18.376;2022-07-19T01:57:42;16.46;82.87
68789;DHT22;55773;54.444;18.376;2022-07-19T02:00:08;16.52;82.77
68789;DHT22;55773;54.444;18.376;2022-07-19T02:02:33;16.62;81.87
68789;DHT22;55773;54.444;18.376;2022-07-19T02:05:01;16.59;82.04
68789;DHT22;55773;54.444;18.376;2022-07-19T02:07:27;16.59;82.28
68789;DHT22;55773;54.444;18.376;2022-07-19T02:09:52;16.59;82.10
68789;DHT22;55773;54.444;18.376;2022-07-19T02:12:18;16.64;81.74
68789;DHT22;55773;54.444;18.376;2022-07-19T02:14:43;16.64;81.65
68789;DHT22;55773;54.444;18.376;2022-07-19T02:17:08;16.63;81.84
68789;DHT22;55773;54.444;18.376;2022-07-19T02:19:34;16.69;81.67
68789;DHT22;55773;54.444;18.376;2022-07-19T02:22:00;16.67;82.21
68789;DHT22;55773;54.444;18.376;2022-07-19T02:24:25;16.67;81.86
68789;DHT22;55773;54.444;18.376;2022-07-19T02:26:51;16.63;82.11
68789;DHT22;55773;54.444;18.376;2022-07-19T02:29:16;16.62;82.13
68789;DHT22;55773;54.444;18.376;2022-07-19T02:31:42;16.73;81.68
68789;DHT22;55773;54.444;18.376;2022-07-19T02:34:09;16.72;81.48
68789;DHT22;55773;54.444;18.376;2022-07-19T02:36:35;16.67;82.11
68789;DHT22;55773;54.444;18.376;2022-07-19T02:39:00;16.70;81.91
68789;DHT22;55773;54.444;18.376;2022-07-19T02:41:26;16.72;82.18
68789;DHT22;55773;54.444;18.376;2022-07-19T02:43:51;16.64;82.35
68789;DHT22;55773;54.444;18.376;2022-07-19T02:46:17;16.66;82.57
68789;DHT22;55773;54.444;18.376;2022-07-19T02:48:45;16.69;82.37
68789;DHT22;55773;54.444;18.376;2022-07-19T02:51:11;16.69;82.52
68789;DHT22;55773;54.444;18.376;2022-07-19T02:53:37;16.70;82.25
68789;DHT22;55773;54.444;18.376;2022-07-19T02:56:03;16.73;82.21
68789;DHT22;55773;54.444;18.376;2022-07-19T02:58:28;16.77;82.16
68789;DHT22;55773;54.444;18.376;2022-07-19T03:00:54;16.73;82.44
68789;DHT22;55773;54.444;18.376;2022-07-19T03:03:19;16.73;82.60
68789;DHT22;55773;54.444;18.376;2022-07-19T03:06:06;16.83;82.22
68789;DHT22;55773;54.444;18.376;2022-07-19T03:08:31;16.81;82.44
68789;DHT22;55773;54.444;18.376;2022-07-19T03:10:57;16.85;82.35
68789;DHT22;55773;54.444;18.376;2022-07-19T03:13:22;16.88;82.26
68789;DHT22;55773;54.444;18.376;2022-07-19T03:15:48;16.93;82.18
68789;DHT22;55773;54.444;18.376;2022-07-19T03:18:14;16.85;82.69
68789;DHT22;55773;54.444;18.376;2022-07-19T03:20:39;16.90;82.62
68789;DHT22;55773;54.444;18.376;2022-07-19T03:23:05;16.91;82.42
68789;DHT22;55773;54.444;18.376;2022-07-19T03:25:30;17.06;82.18
68789;DHT22;55773;54.444;18.376;2022-07-19T03:27:56;17.04;82.29
68789;DHT22;55773;54.444;18.376;2022-07-19T03:30:21;16.97;82.49
68789;DHT22;55773;54.444;18.376;2022-07-19T03:32:49;17.06;82.31
68789;DHT22;55773;54.444;18.376;2022-07-19T03:35:17;17.03;82.59
68789;DHT22;55773;54.444;18.376;2022-07-19T03:37:42;16.95;82.86
68789;DHT22;55773;54.444;18.376;2022-07-19T03:40:09;17.06;82.29
68789;DHT22;55773;54.444;18.376;2022-07-19T03:42:37;17.07;82.46
68789;DHT22;55773;54.444;18.376;2022-07-19T03:45:03;17.12;82.49
68789;DHT22;55773;54.444;18.376;2022-07-19T03:47:28;17.17;82.15
68789;DHT22;55773;54.444;18.376;2022-07-19T03:49:54;17.21;81.90
68789;DHT22;55773;54.444;18.376;2022-07-19T03:52:19;17.28;81.87
68789;DHT22;55773;54.444;18.376;2022-07-19T03:54:45;17.20;82.20
68789;DHT22;55773;54.444;18.376;2022-07-19T03:57:11;17.24;81.94
68789;DHT22;55773;54.444;18.376;2022-07-19T03:59:36;17.21;82.09
68789;DHT22;55773;54.444;18.376;2022-07-19T04:02:02;17.20;82.46
68789;DHT22;55773;54.444;18.376;2022-07-19T04:04:27;17.38;81.25
68789;DHT22;55773;54.444;18.376;2022-07-19T04:06:53;17.48;81.01
68789;DHT22;55773;54.444;18.376;2022-07-19T04:09:18;17.46;81.30
68789;DHT22;55773;54.444;18.376;2022-07-19T04:11:44;17.41;81.76
68789;DHT22;55773;54.444;18.376;2022-07-19T04:14:09;17.48;81.28
68789;DHT22;55773;54.444;18.376;2022-07-19T04:16:35;17.63;80.49
68789;DHT22;55773;54.444;18.376;2022-07-19T04:19:01;17.56;81.10
68789;DHT22;55773;54.444;18.376;2022-07-19T04:21:26;17.49;81.67
68789;DHT22;55773;54.444;18.376;2022-07-19T04:23:52;17.55;81.20
68789;DHT22;55773;54.444;18.376;2022-07-19T04:26:17;17.51;81.59
68789;DHT22;55773;54.444;18.376;2022-07-19T04:28:43;17.59;81.05
68789;DHT22;55773;54.444;18.376;2022-07-19T04:31:11;17.62;80.74
68789;DHT22;55773;54.444;18.376;2022-07-19T04:33:37;17.61;81.16
68789;DHT22;55773;54.444;18.376;2022-07-19T04:36:02;17.80;80.19
68789;DHT22;55773;54.444;18.376;2022-07-19T04:38:28;17.76;80.90
68789;DHT22;55773;54.444;18.376;2022-07-19T04:40:53;17.86;80.40
68789;DHT22;55773;54.444;18.376;2022-07-19T04:43:21;17.79;80.63
68789;DHT22;55773;54.444;18.376;2022-07-19T04:45:47;17.91;79.96
68789;DHT22;55773;54.444;18.376;2022-07-19T04:48:12;17.90;80.07
68789;DHT22;55773;54.444;18.376;2022-07-19T04:50:41;17.80;80.22
68789;DHT22;55773;54.444;18.376;2022-07-19T04:53:07;17.70;80.35
68789;DHT22;55773;54.444;18.376;2022-07-19T04:55:33;17.72;80.29
68789;DHT22;55773;54.444;18.376;2022-07-19T04:58:01;17.83;80.02
68789;DHT22;55773;54.444;18.376;2022-07-19T05:00:27;17.93;79.45
68789;DHT22;55773;54.444;18.376;2022-07-19T05:02:56;18.13;78.83
68789;DHT22;55773;54.444;18.376;2022-07-19T05:05:22;18.17;79.50
68789;DHT22;55773;54.444;18.376;2022-07-19T05:07:50;18.43;78.41
68789;DHT22;55773;54.444;18.376;2022-07-19T05:10:16;18.43;77.59
68789;DHT22;55773;54.444;18.376;2022-07-19T05:12:42;18.58;77.59
68789;DHT22;55773;54.444;18.376;2022-07-19T05:15:10;18.64;77.74
68789;DHT22;55773;54.444;18.376;2022-07-19T05:17:38;18.79;77.22
68789;DHT22;55773;54.444;18.376;2022-07-19T05:20:04;18.94;76.94
68789;DHT22;55773;54.444;18.376;2022-07-19T05:22:31;19.06;76.29
68789;DHT22;55773;54.444;18.376;2022-07-19T05:24:57;19.26;75.96
68789;DHT22;55773;54.444;18.376;2022-07-19T05:27:22;19.36;75.75
68789;DHT22;55773;54.444;18.376;2022-07-19T05:29:48;19.60;74.96
68789;DHT22;55773;54.444;18.376;2022-07-19T05:32:14;19.68;74.96
68789;DHT22;55773;54.444;18.376;2022-07-19T05:34:39;19.68;74.90
68789;DHT22;55773;54.444;18.376;2022-07-19T05:37:08;19.89;73.94
68789;DHT22;55773;54.444;18.376;2022-07-19T05:39:34;20.02;73.26
68789;DHT22;55773;54.444;18.376;2022-07-19T05:42:01;20.22;72.73
68789;DHT22;55773;54.444;18.376;2022-07-19T05:44:30;20.26;71.15
68789;DHT22;55773;54.444;18.376;2022-07-19T05:46:55;20.34;71.64
68789;DHT22;55773;54.444;18.376;2022-07-19T05:49:21;20.52;70.95
68789;DHT22;55773;54.444;18.376;2022-07-19T05:51:47;20.49;70.52
68789;DHT22;55773;54.444;18.376;2022-07-19T05:54:12;20.56;70.09
68789;DHT22;55773;54.444;18.376;2022-07-19T05:56:38;20.70;69.70
68789;DHT22;55773;54.444;18.376;2022-07-19T05:59:03;20.79;68.13
68789;DHT22;55773;54.444;18.376;2022-07-19T06:01:29;20.87;69.28
68789;DHT22;55773;54.444;18.376;2022-07-19T06:03:59;20.83;68.89
68789;DHT22;55773;54.444;18.376;2022-07-19T06:06:33;21.04;69.50
68789;DHT22;55773;54.444;18.376;2022-07-19T06:09:00;21.18;68.38
68789;DHT22;55773;54.444;18.376;2022-07-19T06:11:26;21.29;68.11
68789;DHT22;55773;54.444;18.376;2022-07-19T06:13:52;21.19;66.42
68789;DHT22;55773;54.444;18.376;2022-07-19T06:16:18;21.29;67.54
68789;DHT22;55773;54.444;18.376;2022-07-19T06:18:44;21.63;66.39
68789;DHT22;55773;54.444;18.376;2022-07-19T06:21:11;21.55;66.59
68789;DHT22;55773;54.444;18.376;2022-07-19T06:23:39;21.62;65.85
68789;DHT22;55773;54.444;18.376;2022-07-19T06:26:06;21.63;65.95
68789;DHT22;55773;54.444;18.376;2022-07-19T06:28:34;21.59;66.57
68789;DHT22;55773;54.444;18.376;2022-07-19T06:31:00;21.82;66.13
68789;DHT22;55773;54.444;18.376;2022-07-19T06:33:26;21.92;65.52
68789;DHT22;55773;54.444;18.376;2022-07-19T06:35:55;21.97;65.29
68789;DHT22;55773;54.444;18.376;2022-07-19T06:38:21;22.22;65.28
68789;DHT22;55773;54.444;18.376;2022-07-19T06:40:47;22.35;64.96
68789;DHT22;55773;54.444;18.376;2022-07-19T06:43:12;22.21;65.47
68789;DHT22;55773;54.444;18.376;2022-07-19T06:45:38;22.27;64.66
68789;DHT22;55773;54.444;18.376;2022-07-19T06:48:04;22.41;64.10
68789;DHT22;55773;54.444;18.376;2022-07-19T06:50:30;22.65;64.48
68789;DHT22;55773;54.444;18.376;2022-07-19T06:52:55;22.59;64.26
68789;DHT22;55773;54.444;18.376;2022-07-19T06:55:21;22.62;63.28
68789;DHT22;55773;54.444;18.376;2022-07-19T06:57:47;22.82;62.21
68789;DHT22;55773;54.444;18.376;2022-07-19T07:00:13;22.62;62.68
68789;DHT22;55773;54.444;18.376;2022-07-19T07:02:40;22.59;62.22
68789;DHT22;55773;54.444;18.376;2022-07-19T07:05:06;22.71;61.54
68789;DHT22;55773;54.444;18.376;2022-07-19T07:07:32;22.81;61.75
68789;DHT22;55773;54.444;18.376;2022-07-19T07:09:58;22.92;62.33
68789;DHT22;55773;54.444;18.376;2022-07-19T07:12:24;23.16;61.86
68789;DHT22;55773;54.444;18.376;2022-07-19T07:14:50;23.54;61.43
68789;DHT22;55773;54.444;18.376;2022-07-19T07:17:15;23.61;58.68
68789;DHT22;55773;54.444;18.376;2022-07-19T07:19:41;23.36;59.61
68789;DHT22;55773;54.444;18.376;2022-07-19T07:22:07;23.39;60.56
68789;DHT22;55773;54.444;18.376;2022-07-19T07:24:32;23.47;60.87
68789;DHT22;55773;54.444;18.376;2022-07-19T07:26:58;23.60;59.80
68789;DHT22;55773;54.444;18.376;2022-07-19T07:29:23;23.65;57.63
68789;DHT22;55773;54.444;18.376;2022-07-19T07:31:49;23.34;58.13
68789;DHT22;55773;54.444;18.376;2022-07-19T07:34:16;23.37;57.59
68789;DHT22;55773;54.444;18.376;2022-07-19T07:36:44;23.39;59.07
68789;DHT22;55773;54.444;18.376;2022-07-19T07:39:10;23.72;58.53
68789;DHT22;55773;54.444;18.376;2022-07-19T07:41:36;23.65;57.77
68789;DHT22;55773;54.444;18.376;2022-07-19T07:44:02;23.58;56.63
68789;DHT22;55773;54.444;18.376;2022-07-19T07:46:28;23.53;56.90
68789;DHT22;55773;54.444;18.376;2022-07-19T07:48:53;23.60;56.61
68789;DHT22;55773;54.444;18.376;2022-07-19T07:51:19;23.79;57.73
68789;DHT22;55773;54.444;18.376;2022-07-19T07:53:44;24.02;56.58
68789;DHT22;55773;54.444;18.376;2022-07-19T07:56:12;23.82;54.52
68789;DHT22;55773;54.444;18.376;2022-07-19T07:58:38;23.86;54.73
68789;DHT22;55773;54.444;18.376;2022-07-19T08:01:06;24.04;54.80
68789;DHT22;55773;54.444;18.376;2022-07-19T08:03:34;23.92;54.60
68789;DHT22;55773;54.444;18.376;2022-07-19T08:06:00;24.08;54.65
68789;DHT22;55773;54.444;18.376;2022-07-19T08:08:26;24.20;54.94
68789;DHT22;55773;54.444;18.376;2022-07-19T08:10:55;24.15;54.58
68789;DHT22;55773;54.444;18.376;2022-07-19T08:13:21;24.41;53.90
68789;DHT22;55773;54.444;18.376;2022-07-19T08:15:47;24.48;54.31
68789;DHT22;55773;54.444;18.376;2022-07-19T08:18:12;24.70;54.36
68789;DHT22;55773;54.444;18.376;2022-07-19T08:20:38;24.64;53.74
68789;DHT22;55773;54.444;18.376;2022-07-19T08:23:04;24.71;53.90
68789;DHT22;55773;54.444;18.376;2022-07-19T08:25:29;24.61;53.64
68789;DHT22;55773;54.444;18.376;2022-07-19T08:27:55;24.73;54.12
68789;DHT22;55773;54.444;18.376;2022-07-19T08:30:21;24.95;54.79
68789;DHT22;55773;54.444;18.376;2022-07-19T08:32:47;25.08;54.39
68789;DHT22;55773;54.444;18.376;2022-07-19T08:35:12;25.17;52.93
68789;DHT22;55773;54.444;18.376;2022-07-19T08:37:38;25.14;52.40
68789;DHT22;55773;54.444;18.376;2022-07-19T08:40:05;24.98;52.43
68789;DHT22;55773;54.444;18.376;2022-07-19T08:42:31;25.28;51.94
68789;DHT22;55773;54.444;18.376;2022-07-19T08:45:00;25.36;51.14
68789;DHT22;55773;54.444;18.376;2022-07-19T08:47:27;25.03;52.49
68789;DHT22;55773;54.444;18.376;2022-07-19T08:49:53;25.25;52.49
68789;DHT22;55773;54.444;18.376;2022-07-19T08:52:21;25.19;54.72
68789;DHT22;55773;54.444;18.376;2022-07-19T08:54:47;25.43;51.71
68789;DHT22;55773;54.444;18.376;2022-07-19T08:57:13;25.07;53.69
68789;DHT22;55773;54.444;18.376;2022-07-19T08:59:58;25.03;53.57
68789;DHT22;55773;54.444;18.376;2022-07-19T09:02:23;25.32;53.91
68789;DHT22;55773;54.444;18.376;2022-07-19T09:05:03;25.24;53.69
68789;DHT22;55773;54.444;18.376;2022-07-19T09:07:37;25.11;52.46
68789;DHT22;55773;54.444;18.376;2022-07-19T09:10:20;25.08;52.96
68789;DHT22;55773;54.444;18.376;2022-07-19T09:15:38;25.76;52.42
68789;DHT22;55773;54.444;18.376;2022-07-19T09:18:11;26.06;51.53
68789;DHT22;55773;54.444;18.376;2022-07-19T09:20:37;25.97;49.94
68789;DHT22;55773;54.444;18.376;2022-07-19T09:23:03;25.83;50.44
68789;DHT22;55773;54.444;18.376;2022-07-19T09:25:37;26.06;51.82
68789;DHT22;55773;54.444;18.376;2022-07-19T09:28:03;26.54;51.04
68789;DHT22;55773;54.444;18.376;2022-07-19T09:31:15;26.38;50.64
68789;DHT22;55773;54.444;18.376;2022-07-19T09:33:26;26.35;51.84
68789;DHT22;55773;54.444;18.376;2022-07-19T09:36:01;26.37;50.23
68789;DHT22;55773;54.444;18.376;2022-07-19T09:38:32;26.07;51.96
68789;DHT22;55773;54.444;18.376;2022-07-19T09:43:58;26.79;52.22
68789;DHT22;55773;54.444;18.376;2022-07-19T09:49:10;26.78;51.86
68789;DHT22;55773;54.444;18.376;2022-07-19T09:51:41;26.95;50.06
68789;DHT22;55773;54.444;18.376;2022-07-19T09:54:10;26.85;49.45
68789;DHT22;55773;54.444;18.376;2022-07-19T09:56:38;27.22;50.44
68789;DHT22;55773;54.444;18.376;2022-07-19T09:59:04;27.13;49.83
68789;DHT22;55773;54.444;18.376;2022-07-19T10:01:30;27.16;49.42
68789;DHT22;55773;54.444;18.376;2022-07-19T10:04:02;27.26;49.30
68789;DHT22;55773;54.444;18.376;2022-07-19T10:06:28;27.14;49.02
68789;DHT22;55773;54.444;18.376;2022-07-19T10:08:54;27.17;50.13
68789;DHT22;55773;54.444;18.376;2022-07-19T10:11:21;27.41;49.70
68789;DHT22;55773;54.444;18.376;2022-07-19T10:13:49;27.34;48.15
68789;DHT22;55773;54.444;18.376;2022-07-19T10:16:19;27.64;47.83
68789;DHT22;55773;54.444;18.376;2022-07-19T10:19:09;27.24;49.45
68789;DHT22;55773;54.444;18.376;2022-07-19T10:21:36;27.62;48.91
68789;DHT22;55773;54.444;18.376;2022-07-19T10:24:02;27.40;49.71
68789;DHT22;55773;54.444;18.376;2022-07-19T10:26:39;27.57;50.09
68789;DHT22;55773;54.444;18.376;2022-07-19T10:29:17;27.62;50.17
68789;DHT22;55773;54.444;18.376;2022-07-19T10:31:45;27.39;48.67
68789;DHT22;55773;54.444;18.376;2022-07-19T10:34:26;27.65;47.15
68789;DHT22;55773;54.444;18.376;2022-07-19T10:36:51;27.49;49.22
68789;DHT22;55773;54.444;18.376;2022-07-19T10:39:21;27.64;49.02
68789;DHT22;55773;54.444;18.376;2022-07-19T10:42:06;27.87;49.74
68789;DHT22;55773;54.444;18.376;2022-07-19T10:44:33;28.18;49.50
68789;DHT22;55773;54.444;18.376;2022-07-19T10:46:59;28.47;47.34
68789;DHT22;55773;54.444;18.376;2022-07-19T10:49:45;28.10;46.35
68789;DHT22;55773;54.444;18.376;2022-07-19T11:00:50;28.02;46.98
68789;DHT22;55773;54.444;18.376;2022-07-19T11:05:53;28.05;47.74
68789;DHT22;55773;54.444;18.376;2022-07-19T11:08:41;28.16;46.55
68789;DHT22;55773;54.444;18.376;2022-07-19T11:11:12;28.12;47.75
68789;DHT22;55773;54.444;18.376;2022-07-19T11:13:40;28.19;47.46
68789;DHT22;55773;54.444;18.376;2022-07-19T11:16:08;28.16;46.93
68789;DHT22;55773;54.444;18.376;2022-07-19T11:18:33;28.37;47.81
68789;DHT22;55773;54.444;18.376;2022-07-19T11:21:00;28.31;45.72
68789;DHT22;55773;54.444;18.376;2022-07-19T11:23:31;28.18;45.73
68789;DHT22;55773;54.444;18.376;2022-07-19T11:28:32;28.26;45.94
68789;DHT22;55773;54.444;18.376;2022-07-19T11:30:57;28.47;46.93
68789;DHT22;55773;54.444;18.376;2022-07-19T11:33:23;28.56;47.57
68789;DHT22;55773;54.444;18.376;2022-07-19T11:35:59;28.40;46.21
68789;DHT22;55773;54.444;18.376;2022-07-19T11:41:17;29.00;43.88
68789;DHT22;55773;54.444;18.376;2022-07-19T11:46:27;28.95;44.11
68789;DHT22;55773;54.444;18.376;2022-07-19T11:49:01;29.04;44.69
68789;DHT22;55773;54.444;18.376;2022-07-19T11:51:28;29.11;44.35
68789;DHT22;55773;54.444;18.376;2022-07-19T11:53:55;28.86;44.68
68789;DHT22;55773;54.444;18.376;2022-07-19T11:56:32;28.66;43.54
68789;DHT22;55773;54.444;18.376;2022-07-19T11:59:00;28.81;43.36
68789;DHT22;55773;54.444;18.376;2022-07-19T12:01:31;29.05;46.26
68789;DHT22;55773;54.444;18.376;2022-07-19T12:03:58;29.26;44.33
68789;DHT22;55773;54.444;18.376;2022-07-19T12:06:46;29.65;42.43
68789;DHT22;55773;54.444;18.376;2022-07-19T12:09:18;29.32;42.91
68789;DHT22;55773;54.444;18.376;2022-07-19T12:11:49;29.38;42.70
68789;DHT22;55773;54.444;18.376;2022-07-19T12:19:41;29.76;41.31
68789;DHT22;55773;54.444;18.376;2022-07-19T12:22:34;29.15;42.55
68789;DHT22;55773;54.444;18.376;2022-07-19T12:25:00;29.46;42.35
68789;DHT22;55773;54.444;18.376;2022-07-19T12:27:26;29.58;41.47
68789;DHT22;55773;54.444;18.376;2022-07-19T12:29:55;29.52;42.51
68789;DHT22;55773;54.444;18.376;2022-07-19T12:32:32;29.59;42.92
68789;DHT22;55773;54.444;18.376;2022-07-19T12:37:31;28.97;44.97
68789;DHT22;55773;54.444;18.376;2022-07-19T12:42:50;29.32;44.38
68789;DHT22;55773;54.444;18.376;2022-07-19T12:45:19;29.49;44.02
68789;DHT22;55773;54.444;18.376;2022-07-19T12:47:49;29.18;42.81
68789;DHT22;55773;54.444;18.376;2022-07-19T12:52:58;29.39;44.63
68789;DHT22;55773;54.444;18.376;2022-07-19T12:55:25;29.25;43.88
68789;DHT22;55773;54.444;18.376;2022-07-19T12:57:52;29.24;43.62
68789;DHT22;55773;54.444;18.376;2022-07-19T13:00:19;29.39;41.79
68789;DHT22;55773;54.444;18.376;2022-07-19T13:02:46;29.38;41.25
68789;DHT22;55773;54.444;18.376;2022-07-19T13:05:15;29.65;41.42
68789;DHT22;55773;54.444;18.376;2022-07-19T13:07:41;29.65;40.43
68789;DHT22;55773;54.444;18.376;2022-07-19T13:10:07;29.28;41.62
68789;DHT22;55773;54.444;18.376;2022-07-19T13:12:37;29.48;41.58
68789;DHT22;55773;54.444;18.376;2022-07-19T13:15:03;29.35;43.78
68789;DHT22;55773;54.444;18.376;2022-07-19T13:17:29;29.36;43.18
68789;DHT22;55773;54.444;18.376;2022-07-19T13:19:55;29.49;40.23
68789;DHT22;55773;54.444;18.376;2022-07-19T13:22:20;29.19;40.56
68789;DHT22;55773;54.444;18.376;2022-07-19T13:24:46;29.18;41.74
68789;DHT22;55773;54.444;18.376;2022-07-19T13:27:11;29.29;41.16
68789;DHT22;55773;54.444;18.376;2022-07-19T13:29:37;29.32;39.53
68789;DHT22;55773;54.444;18.376;2022-07-19T13:32:06;29.22;40.37
68789;DHT22;55773;54.444;18.376;2022-07-19T13:34:36;29.04;40.83
68789;DHT22;55773;54.444;18.376;2022-07-19T13:37:02;29.05;38.53
68789;DHT22;55773;54.444;18.376;2022-07-19T13:39:30;28.81;39.18
68789;DHT22;55773;54.444;18.376;2022-07-19T13:41:58;28.63;39.76
68789;DHT22;55773;54.444;18.376;2022-07-19T13:44:24;28.56;41.04
68789;DHT22;55773;54.444;18.376;2022-07-19T13:46:50;28.63;41.29
68789;DHT22;55773;54.444;18.376;2022-07-19T13:49:16;28.68;42.99
68789;DHT22;55773;54.444;18.376;2022-07-19T13:51:41;28.29;42.95
68789;DHT22;55773;54.444;18.376;2022-07-19T13:54:07;28.35;42.38
68789;DHT22;55773;54.444;18.376;2022-07-19T13:56:35;28.37;44.56
68789;DHT22;55773;54.444;18.376;2022-07-19T13:59:01;28.68;42.56
68789;DHT22;55773;54.444;18.376;2022-07-19T14:01:27;28.77;41.67
68789;DHT22;55773;54.444;18.376;2022-07-19T14:03:53;28.71;41.81
68789;DHT22;55773;54.444;18.376;2022-07-19T14:06:21;28.74;42.75
68789;DHT22;55773;54.444;18.376;2022-07-19T14:08:47;28.67;42.58
68789;DHT22;55773;54.444;18.376;2022-07-19T14:11:13;28.76;40.87
68789;DHT22;55773;54.444;18.376;2022-07-19T14:13:40;28.73;41.38
68789;DHT22;55773;54.444;18.376;2022-07-19T14:16:06;28.66;40.23
68789;DHT22;55773;54.444;18.376;2022-07-19T14:18:35;28.28;43.44
68789;DHT22;55773;54.444;18.376;2022-07-19T14:21:01;28.46;42.17
68789;DHT22;55773;54.444;18.376;2022-07-19T14:23:27;28.35;42.59
68789;DHT22;55773;54.444;18.376;2022-07-19T14:25:53;28.46;43.76
68789;DHT22;55773;54.444;18.376;2022-07-19T14:28:18;28.40;42.49
68789;DHT22;55773;54.444;18.376;2022-07-19T14:30:50;28.45;43.33
68789;DHT22;55773;54.444;18.376;2022-07-19T14:33:17;28.49;42.54
68789;DHT22;55773;54.444;18.376;2022-07-19T14:35:44;28.49;42.63
68789;DHT22;55773;54.444;18.376;2022-07-19T14:38:12;28.28;42.84
68789;DHT22;55773;54.444;18.376;2022-07-19T14:40:38;28.12;42.22
68789;DHT22;55773;54.444;18.376;2022-07-19T14:43:04;28.16;43.22
68789;DHT22;55773;54.444;18.376;2022-07-19T14:45:32;28.02;42.26
68789;DHT22;55773;54.444;18.376;2022-07-19T14:47:57;27.70;43.49
68789;DHT22;55773;54.444;18.376;2022-07-19T14:50:23;27.76;43.85
68789;DHT22;55773;54.444;18.376;2022-07-19T14:52:52;27.29;44.34
68789;DHT22;55773;54.444;18.376;2022-07-19T14:55:20;27.77;43.33
68789;DHT22;55773;54.444;18.376;2022-07-19T14:57:46;27.84;42.44
68789;DHT22;55773;54.444;18.376;2022-07-19T15:00:14;27.77;43.76
68789;DHT22;55773;54.444;18.376;2022-07-19T15:02:40;27.61;43.04
68789;DHT22;55773;54.444;18.376;2022-07-19T15:05:06;27.65;42.01
68789;DHT22;55773;54.444;18.376;2022-07-19T15:07:32;27.39;43.73
68789;DHT22;55773;54.444;18.376;2022-07-19T15:10:01;27.67;43.25
68789;DHT22;55773;54.444;18.376;2022-07-19T15:12:26;27.68;43.92
68789;DHT22;55773;54.444;18.376;2022-07-19T15:14:52;27.64;43.60
68789;DHT22;55773;54.444;18.376;2022-07-19T15:17:17;27.47;43.79
68789;DHT22;55773;54.444;18.376;2022-07-19T15:19:43;27.51;43.04
68789;DHT22;55773;54.444;18.376;2022-07-19T15:22:11;27.49;43.33
68789;DHT22;55773;54.444;18.376;2022-07-19T15:24:37;27.24;42.41
68789;DHT22;55773;54.444;18.376;2022-07-19T15:27:03;27.13;43.35
68789;DHT22;55773;54.444;18.376;2022-07-19T15:29:28;27.09;41.77
68789;DHT22;55773;54.444;18.376;2022-07-19T15:31:54;26.93;42.56
68789;DHT22;55773;54.444;18.376;2022-07-19T15:34:19;26.81;44.33
68789;DHT22;55773;54.444;18.376;2022-07-19T15:36:45;26.71;44.92
68789;DHT22;55773;54.444;18.376;2022-07-19T15:39:11;26.55;44.43
68789;DHT22;55773;54.444;18.376;2022-07-19T15:41:37;26.49;44.59
68789;DHT22;55773;54.444;18.376;2022-07-19T15:44:03;26.56;43.43
68789;DHT22;55773;54.444;18.376;2022-07-19T15:46:29;26.33;42.88
68789;DHT22;55773;54.444;18.376;2022-07-19T15:48:59;26.23;43.05
68789;DHT22;55773;54.444;18.376;2022-07-19T15:51:25;26.20;42.15
68789;DHT22;55773;54.444;18.376;2022-07-19T15:53:51;25.92;42.85
68789;DHT22;55773;54.444;18.376;2022-07-19T15:56:16;25.94;43.56